createdAt,value
2022-10-17T00:01:12.162Z,48.36
2022-10-17T00:03:40.738Z,48.36
2022-10-17T00:06:11.240Z,48.41
2022-10-17T00:08:39.151Z,48.90
2022-10-17T00:11:13.210Z,48.59
2022-10-17T00:13:40.235Z,48.95
2022-10-17T00:16:07.803Z,49.22
2022-10-17T00:18:34.877Z,49.20
2022-10-17T00:21:01.908Z,49.35
2022-10-17T00:23:30.610Z,49.32
2022-10-17T00:26:01.750Z,49.22
2022-10-17T00:28:28.795Z,49.19
2022-10-17T00:31:07.275Z,49.53
2022-10-17T00:33:35.797Z,49.74
2022-10-17T00:36:26.502Z,50.00
2022-10-17T00:38:57.852Z,51.48
2022-10-17T00:41:29.514Z,51.22
2022-10-17T00:43:59.514Z,50.57
2022-10-17T00:46:29.844Z,49.94
2022-10-17T00:48:59.254Z,49.62
2022-10-17T00:51:49.418Z,49.60
2022-10-17T00:54:20.582Z,49.41
2022-10-17T00:56:48.847Z,49.42
2022-10-17T00:59:18.166Z,49.43
2022-10-17T01:01:52.999Z,49.42
2022-10-17T01:04:20.890Z,49.33
2022-10-17T01:06:47.980Z,49.50
2022-10-17T01:09:14.955Z,49.32
2022-10-17T01:12:05.011Z,49.37
2022-10-17T01:14:43.023Z,49.44
2022-10-17T01:17:37.470Z,49.46
2022-10-17T01:20:13.619Z,49.80
2022-10-17T01:23:11.187Z,49.53
2022-10-17T01:25:47.723Z,49.81
2022-10-17T01:28:27.223Z,49.84
2022-10-17T01:30:57.340Z,49.49
2022-10-17T01:33:34.057Z,49.85
2022-10-17T01:36:16.613Z,50.43
2022-10-17T01:39:13.642Z,51.55
2022-10-17T01:41:47.483Z,50.96
2022-10-17T01:44:49.568Z,50.17
2022-10-17T01:47:23.381Z,49.79
2022-10-17T01:49:54.095Z,49.36
2022-10-17T01:52:27.092Z,49.10
2022-10-17T01:54:59.853Z,49.18
2022-10-17T01:57:38.308Z,48.97
2022-10-17T02:00:09.805Z,48.98
2022-10-17T02:02:42.488Z,48.94
2022-10-17T02:05:10.647Z,49.04
2022-10-17T02:07:37.612Z,49.01
2022-10-17T02:10:10.936Z,48.90
2022-10-17T02:12:46.733Z,48.93
2022-10-17T02:15:39.003Z,49.19
2022-10-17T02:18:11.981Z,49.26
2022-10-17T02:21:25.456Z,49.16
2022-10-17T02:24:14.585Z,49.21
2022-10-17T02:26:48.079Z,49.37
2022-10-17T02:29:24.574Z,49.14
2022-10-17T02:32:02.119Z,49.16
2022-10-17T02:34:38.697Z,49.03
2022-10-17T02:37:08.673Z,48.92
2022-10-17T02:39:38.309Z,49.01
2022-10-17T02:42:10.267Z,48.99
2022-10-17T02:44:40.569Z,49.19
2022-10-17T02:47:19.394Z,49.08
2022-10-17T02:49:51.704Z,48.91
2022-10-17T02:52:45.698Z,48.88
2022-10-17T02:55:16.211Z,48.70
2022-10-17T02:57:54.187Z,48.92
2022-10-17T03:00:23.875Z,48.87
2022-10-17T03:02:52.700Z,48.58
2022-10-17T03:05:25.971Z,48.47
2022-10-17T03:07:54.381Z,48.49
2022-10-17T03:10:22.544Z,48.46
2022-10-17T03:12:49.611Z,48.36
2022-10-17T03:15:16.729Z,48.36
2022-10-17T03:20:16.876Z,48.22
2022-10-17T03:22:45.213Z,48.32
2022-10-17T03:25:12.266Z,48.32
2022-10-17T03:27:39.664Z,48.30
2022-10-17T03:30:07.627Z,48.49
2022-10-17T03:32:34.822Z,48.39
2022-10-17T03:35:02.303Z,48.58
2022-10-17T03:37:29.690Z,48.71
2022-10-17T03:39:57.215Z,48.74
2022-10-17T03:42:25.239Z,48.76
2022-10-17T03:44:52.192Z,48.86
2022-10-17T03:47:19.228Z,49.20
2022-10-17T03:49:46.461Z,48.92
2022-10-17T03:52:15.508Z,49.05
2022-10-17T03:54:42.510Z,49.22
2022-10-17T03:57:09.534Z,49.04
2022-10-17T03:59:36.634Z,49.11
2022-10-17T04:02:07.374Z,49.33
2022-10-17T04:04:34.507Z,49.24
2022-10-17T04:07:01.635Z,49.31
2022-10-17T04:09:28.722Z,49.24
2022-10-17T04:12:04.202Z,49.15
2022-10-17T04:14:31.536Z,49.29
2022-10-17T04:16:58.705Z,49.40
2022-10-17T04:19:26.110Z,50.69
2022-10-17T04:21:53.134Z,50.51
2022-10-17T04:24:20.836Z,49.83
2022-10-17T04:27:06.660Z,49.05
2022-10-17T04:29:36.354Z,48.72
2022-10-17T04:32:15.315Z,48.44
2022-10-17T04:35:05.593Z,48.31
2022-10-17T04:37:32.722Z,48.23
2022-10-17T04:40:01.733Z,48.18
2022-10-17T04:42:31.147Z,48.04
2022-10-17T04:44:58.423Z,47.97
2022-10-17T04:47:25.808Z,47.88
2022-10-17T04:49:52.947Z,47.90
2022-10-17T04:52:20.097Z,47.94
2022-10-17T04:54:49.627Z,47.90
2022-10-17T04:57:17.608Z,47.77
2022-10-17T04:59:51.843Z,47.90
2022-10-17T05:02:38.825Z,47.83
2022-10-17T05:05:06.221Z,47.94
2022-10-17T05:07:33.168Z,47.71
2022-10-17T05:10:08.696Z,47.87
2022-10-17T05:12:36.564Z,47.86
2022-10-17T05:15:05.591Z,47.65
2022-10-17T05:17:33.596Z,47.74
2022-10-17T05:20:00.655Z,47.67
2022-10-17T05:22:28.587Z,47.60
2022-10-17T05:24:56.211Z,47.43
2022-10-17T05:27:24.036Z,47.27
2022-10-17T05:29:51.117Z,47.14
2022-10-17T05:32:25.779Z,47.05
2022-10-17T05:34:52.709Z,46.98
2022-10-17T05:37:20.241Z,47.00
2022-10-17T05:39:51.598Z,46.70
2022-10-17T05:42:19.280Z,46.72
2022-10-17T05:44:46.473Z,46.59
2022-10-17T05:47:14.045Z,46.45
2022-10-17T05:49:47.333Z,46.43
2022-10-17T05:52:16.170Z,46.24
2022-10-17T05:55:02.086Z,46.17
2022-10-17T05:57:29.389Z,46.09
2022-10-17T05:59:56.992Z,45.92
2022-10-17T06:02:24.260Z,45.99
2022-10-17T06:04:51.429Z,45.87
2022-10-17T06:07:20.729Z,45.73
2022-10-17T06:09:48.495Z,45.72
2022-10-17T06:12:15.535Z,45.48
2022-10-17T06:14:43.364Z,45.28
2022-10-17T06:17:15.734Z,45.11
2022-10-17T06:19:45.163Z,44.80
2022-10-17T06:22:14.394Z,44.58
2022-10-17T06:24:42.517Z,44.64
2022-10-17T06:27:11.996Z,44.47
2022-10-17T06:29:41.292Z,44.09
2022-10-17T06:32:11.305Z,44.06
2022-10-17T06:34:42.377Z,43.75
2022-10-17T06:37:09.848Z,43.96
2022-10-17T06:39:38.652Z,43.40
2022-10-17T06:42:10.810Z,43.55
2022-10-17T06:44:53.719Z,43.14
2022-10-17T06:47:40.111Z,42.81
2022-10-17T06:50:20.567Z,42.98
2022-10-17T06:52:58.500Z,42.98
2022-10-17T06:55:44.117Z,42.50
2022-10-17T06:58:22.328Z,42.48
2022-10-17T07:01:13.588Z,42.39
2022-10-17T07:03:41.484Z,42.16
2022-10-17T07:06:11.075Z,42.33
2022-10-17T07:08:42.424Z,41.89
2022-10-17T07:11:14.426Z,41.68
2022-10-17T07:13:43.097Z,41.90
2022-10-17T07:16:11.347Z,41.92
2022-10-17T07:18:40.509Z,41.52
2022-10-17T07:21:08.918Z,41.42
2022-10-17T07:23:37.237Z,41.48
2022-10-17T07:26:08.483Z,40.96
2022-10-17T07:28:38.199Z,40.81
2022-10-17T07:31:17.803Z,40.80
2022-10-17T07:36:15.714Z,40.37
2022-10-17T07:38:42.957Z,40.51
2022-10-17T07:41:12.081Z,40.55
2022-10-17T07:43:39.209Z,40.30
2022-10-17T07:46:08.501Z,39.79
2022-10-17T07:48:35.712Z,39.63
2022-10-17T07:51:04.570Z,39.61
2022-10-17T07:53:32.311Z,39.36
2022-10-17T07:55:59.512Z,39.41
2022-10-17T07:58:26.617Z,39.41
2022-10-17T08:00:53.762Z,39.08
2022-10-17T08:03:21.090Z,38.81
2022-10-17T08:05:48.245Z,38.63
2022-10-17T08:08:16.728Z,38.78
2022-10-17T14:47:42.234Z,34.77
2022-10-17T14:50:12.441Z,34.19
2022-10-17T14:52:40.593Z,33.88
2022-10-17T14:55:24.957Z,33.99
2022-10-17T14:57:51.746Z,34.08
2022-10-17T15:00:20.797Z,33.85
2022-10-17T15:02:49.275Z,33.81
2022-10-17T15:05:16.782Z,33.67
2022-10-17T15:07:46.414Z,33.67
2022-10-17T15:10:35.127Z,33.61
2022-10-17T15:13:26.586Z,33.63
2022-10-17T15:15:53.228Z,33.80
2022-10-17T15:18:22.984Z,33.72
2022-10-17T15:20:56.240Z,33.92
2022-10-17T15:23:31.997Z,33.88
2022-10-17T15:26:00.986Z,33.92
2022-10-17T15:28:28.295Z,34.03
2022-10-17T15:30:58.467Z,34.35
2022-10-17T15:33:25.558Z,34.25
2022-10-17T15:35:52.515Z,34.24
2022-10-17T15:38:19.651Z,34.20
2022-10-17T15:40:50.203Z,34.24
2022-10-17T15:43:19.863Z,34.24
2022-10-17T15:45:47.903Z,34.15
2022-10-17T15:48:29.475Z,34.33
2022-10-17T15:50:56.463Z,34.31
2022-10-17T15:53:25.756Z,34.14
2022-10-17T15:55:53.876Z,34.25
2022-10-17T15:58:23.332Z,34.25
2022-10-17T16:00:50.520Z,34.38
2022-10-17T16:03:17.294Z,34.34
2022-10-17T16:05:46.811Z,34.37
2022-10-17T16:08:14.249Z,34.63
2022-10-17T16:10:42.164Z,34.54
2022-10-17T16:13:21.552Z,34.59
2022-10-17T16:15:51.082Z,34.58
2022-10-17T16:18:17.988Z,34.74
2022-10-17T16:20:45.558Z,34.83
2022-10-17T16:23:13.809Z,34.86
2022-10-17T16:25:41.625Z,34.91
2022-10-17T16:28:11.379Z,34.93
2022-10-17T16:30:44.707Z,35.07
2022-10-17T16:33:11.880Z,35.00
2022-10-17T16:35:39.979Z,35.13
2022-10-17T16:38:07.339Z,35.16
2022-10-17T16:40:37.121Z,35.18
2022-10-17T16:43:04.579Z,35.15
2022-10-17T16:45:32.040Z,35.12
2022-10-17T16:48:01.233Z,35.25
2022-10-17T16:50:30.977Z,35.26
2022-10-17T16:52:58.048Z,35.26
2022-10-17T16:55:25.150Z,35.27
2022-10-17T16:57:52.631Z,35.32
2022-10-17T17:00:19.550Z,35.47
2022-10-17T17:02:47.584Z,35.53
2022-10-17T17:05:15.173Z,35.45
2022-10-17T17:07:42.527Z,35.67
2022-10-17T17:10:09.783Z,35.77
2022-10-17T17:12:37.338Z,35.58
2022-10-17T17:15:05.105Z,35.70
2022-10-17T17:17:49.295Z,35.80
2022-10-17T17:20:18.297Z,35.76
2022-10-17T17:22:45.664Z,35.64
2022-10-17T17:25:12.768Z,35.75
2022-10-17T17:27:41.025Z,35.83
2022-10-17T17:30:11.137Z,35.84
2022-10-17T17:32:38.356Z,35.77
2022-10-17T17:35:05.396Z,35.87
2022-10-17T17:37:33.663Z,35.68
2022-10-17T17:40:01.381Z,35.72
2022-10-17T17:42:28.843Z,35.75
2022-10-17T17:44:55.648Z,35.76
2022-10-17T17:47:22.526Z,35.78
2022-10-17T17:49:50.020Z,35.57
2022-10-17T17:52:16.887Z,35.63
2022-10-17T17:54:43.931Z,35.62
2022-10-17T17:57:11.879Z,35.70
2022-10-17T17:59:39.925Z,35.73
2022-10-17T18:02:09.099Z,35.73
2022-10-17T18:04:42.200Z,35.76
2022-10-17T18:07:09.506Z,35.64
2022-10-17T18:09:38.699Z,35.98
2022-10-17T18:12:09.251Z,35.74
2022-10-17T18:14:36.448Z,35.74
2022-10-17T18:17:03.791Z,35.75
2022-10-17T18:19:31.280Z,35.77
2022-10-17T18:22:00.756Z,35.99
2022-10-17T18:24:27.539Z,35.76
2022-10-17T18:26:59.350Z,35.76
2022-10-17T18:29:29.026Z,35.72
2022-10-17T18:31:59.104Z,35.73
2022-10-17T18:34:26.902Z,35.73
2022-10-17T18:36:54.247Z,36.10
2022-10-17T18:39:21.627Z,35.94
2022-10-17T18:41:48.721Z,35.91
2022-10-17T18:44:16.281Z,35.94
2022-10-17T18:49:18.583Z,35.93
2022-10-17T18:51:46.298Z,36.11
2022-10-17T18:54:19.959Z,36.31
2022-10-17T18:56:49.315Z,36.14
2022-10-17T18:59:16.772Z,36.18
2022-10-17T19:01:43.950Z,36.18
2022-10-17T19:04:11.976Z,36.55
2022-10-17T19:06:39.870Z,36.64
2022-10-17T19:09:09.161Z,36.46
2022-10-17T19:11:37.921Z,36.43
2022-10-17T19:14:12.266Z,36.45
2022-10-17T19:16:43.072Z,36.56
2022-10-17T19:19:23.873Z,36.67
2022-10-17T19:21:51.942Z,36.49
2022-10-17T19:24:25.397Z,36.68
2022-10-17T19:26:55.999Z,36.59
2022-10-17T19:29:30.539Z,36.76
2022-10-17T19:31:59.020Z,36.55
2022-10-17T19:34:29.396Z,36.69
2022-10-17T19:36:56.285Z,36.81
2022-10-17T19:39:24.623Z,36.89
2022-10-17T19:41:52.079Z,36.86
2022-10-17T19:44:20.901Z,36.78
2022-10-17T19:46:48.941Z,36.99
2022-10-17T19:49:17.214Z,36.94
2022-10-17T19:51:44.790Z,37.06
2022-10-17T19:54:16.128Z,37.16
2022-10-17T19:56:44.066Z,37.22
2022-10-17T19:59:13.330Z,37.52
2022-10-17T20:01:40.675Z,37.39
2022-10-17T20:04:10.355Z,37.42
2022-10-17T20:06:40.715Z,37.58
2022-10-17T20:09:12.480Z,37.62
2022-10-17T20:11:48.559Z,37.72
2022-10-17T20:14:15.659Z,37.68
2022-10-17T20:16:44.332Z,37.60
2022-10-17T20:19:20.697Z,37.82
2022-10-17T20:21:47.668Z,37.85
2022-10-17T20:24:16.475Z,38.00
2022-10-17T20:26:44.242Z,38.08
2022-10-17T20:29:25.832Z,38.22
2022-10-17T20:31:53.766Z,38.14
2022-10-17T20:34:20.620Z,38.08
2022-10-17T20:36:48.100Z,38.24
2022-10-17T20:39:18.594Z,38.44
2022-10-17T20:41:46.356Z,38.32
2022-10-17T20:44:13.919Z,38.58
2022-10-17T20:46:52.722Z,38.44
2022-10-17T20:49:27.324Z,38.28
2022-10-17T20:51:54.166Z,38.41
2022-10-17T20:54:21.767Z,38.55
2022-10-17T20:56:49.044Z,38.60
2022-10-17T20:59:17.903Z,38.55
2022-10-17T21:01:46.131Z,38.57
2022-10-17T21:04:44.237Z,38.75
2022-10-17T21:07:01.232Z,38.70
2022-10-17T21:09:28.101Z,38.77
2022-10-17T21:11:56.223Z,38.91
2022-10-17T21:14:24.432Z,39.03
2022-10-17T21:16:53.652Z,38.96
2022-10-17T21:19:21.206Z,39.04
2022-10-17T21:21:49.693Z,39.12
2022-10-17T21:24:18.645Z,39.02
2022-10-17T21:26:48.628Z,39.12
2022-10-17T21:29:16.283Z,39.15
2022-10-17T21:31:46.430Z,39.17
2022-10-17T21:34:20.404Z,39.44
2022-10-17T21:36:48.734Z,39.28
2022-10-17T21:39:16.510Z,39.28
2022-10-17T21:41:44.246Z,39.49
2022-10-17T21:44:16.660Z,39.37
2022-10-17T21:46:45.831Z,39.16
2022-10-17T21:49:15.265Z,39.39
2022-10-17T21:51:47.080Z,39.30
2022-10-17T21:54:15.386Z,39.42
2022-10-17T21:56:42.526Z,39.23
2022-10-17T21:59:12.395Z,39.45
2022-10-17T22:01:43.281Z,39.44
2022-10-17T22:04:13.360Z,39.43
2022-10-17T22:06:42.406Z,39.45
2022-10-17T22:09:19.940Z,39.59
2022-10-17T22:11:54.492Z,39.67
2022-10-17T22:14:23.960Z,39.66
2022-10-17T22:16:52.128Z,39.83
2022-10-17T22:19:24.886Z,39.86
2022-10-17T22:21:54.871Z,40.04
2022-10-17T22:24:22.728Z,40.00
2022-10-17T22:26:52.158Z,39.98
2022-10-17T22:29:22.084Z,40.06
2022-10-17T22:31:51.243Z,39.97
2022-10-17T22:34:21.195Z,40.21
2022-10-17T22:36:50.395Z,39.97
2022-10-17T22:39:18.125Z,40.10
2022-10-17T22:41:44.897Z,40.44
2022-10-17T22:44:14.683Z,40.57
2022-10-17T22:46:41.657Z,40.38
2022-10-17T22:49:11.765Z,40.46
2022-10-17T22:51:41.170Z,40.32
2022-10-17T22:54:10.828Z,40.61
2022-10-17T22:56:38.079Z,40.78
2022-10-17T22:59:04.976Z,40.81
2022-10-17T23:01:31.876Z,40.92
2022-10-17T23:03:58.847Z,40.93
2022-10-17T23:06:25.869Z,40.86
2022-10-17T23:08:53.600Z,40.91
2022-10-17T23:11:20.822Z,40.97
2022-10-17T23:13:49.567Z,40.98
2022-10-17T23:16:16.526Z,41.06
2022-10-17T23:18:45.357Z,41.12
2022-10-17T23:21:12.122Z,41.11
2022-10-17T23:23:39.263Z,41.19
2022-10-17T23:26:09.250Z,41.26
2022-10-17T23:28:40.055Z,41.38
2022-10-17T23:31:21.386Z,41.30
2022-10-17T23:33:49.633Z,41.33
2022-10-17T23:36:19.724Z,41.40
2022-10-17T23:38:48.885Z,41.64
2022-10-17T23:41:18.144Z,41.74
2022-10-17T23:43:48.471Z,41.80
2022-10-17T23:46:16.958Z,41.69
2022-10-17T23:48:45.997Z,41.87
2022-10-17T23:51:14.714Z,41.88
2022-10-17T23:53:43.160Z,41.96
2022-10-17T23:56:11.026Z,42.05
2022-10-17T23:58:39.707Z,41.85
